sensor_id;sensor_type;location;lat;lon;timestamp;pressure;altitude;pressure_sealevel;temperature;humidity
73242;BME280;65659;49.234;-2.094;2023-02-26T00:02:00;100681.95;;;23.87;22.47
73242;BME280;65659;49.234;-2.094;2023-02-26T00:04:26;100688.01;;;24.14;22.43
73242;BME280;65659;49.234;-2.094;2023-02-26T00:06:51;100685.36;;;23.85;22.51
73242;BME280;65659;49.234;-2.094;2023-02-26T00:09:17;100689.85;;;23.81;22.54
73242;BME280;65659;49.234;-2.094;2023-02-26T00:11:44;100699.58;;;23.76;22.57
73242;BME280;65659;49.234;-2.094;2023-02-26T00:14:12;100692.34;;;23.78;22.54
73242;BME280;65659;49.234;-2.094;2023-02-26T00:16:35;100695.55;;;23.71;22.61
73242;BME280;65659;49.234;-2.094;2023-02-26T00:19:02;100706.40;;;23.70;22.66
73242;BME280;65659;49.234;-2.094;2023-02-26T00:21:27;100698.68;;;23.91;22.69
73242;BME280;65659;49.234;-2.094;2023-02-26T00:23:52;100705.90;;;23.73;22.65
73242;BME280;65659;49.234;-2.094;2023-02-26T00:26:17;100707.17;;;24.18;22.69
73242;BME280;65659;49.234;-2.094;2023-02-26T00:28:44;100705.82;;;23.88;22.73
73242;BME280;65659;49.234;-2.094;2023-02-26T00:31:09;100710.85;;;23.85;22.74
73242;BME280;65659;49.234;-2.094;2023-02-26T00:33:35;100709.94;;;24.09;22.76
73242;BME280;65659;49.234;-2.094;2023-02-26T00:36:02;100707.51;;;24.08;22.77
73242;BME280;65659;49.234;-2.094;2023-02-26T00:38:26;100710.01;;;23.84;22.82
73242;BME280;65659;49.234;-2.094;2023-02-26T00:40:52;100710.93;;;24.04;22.83
73242;BME280;65659;49.234;-2.094;2023-02-26T00:43:19;100710.35;;;23.58;22.81
73242;BME280;65659;49.234;-2.094;2023-02-26T00:45:46;100712.48;;;23.84;22.84
73242;BME280;65659;49.234;-2.094;2023-02-26T00:48:21;100714.12;;;23.81;22.82
73242;BME280;65659;49.234;-2.094;2023-02-26T00:50:35;100712.85;;;24.11;22.81
73242;BME280;65659;49.234;-2.094;2023-02-26T00:53:06;100710.64;;;24.10;22.82
73242;BME280;65659;49.234;-2.094;2023-02-26T00:55:25;100714.31;;;23.65;22.83
73242;BME280;65659;49.234;-2.094;2023-02-26T00:57:51;100723.77;;;23.62;22.84
73242;BME280;65659;49.234;-2.094;2023-02-26T01:00:18;100715.07;;;23.82;22.88
73242;BME280;65659;49.234;-2.094;2023-02-26T01:02:43;100721.68;;;23.82;22.88
73242;BME280;65659;49.234;-2.094;2023-02-26T01:05:10;100731.20;;;23.80;22.91
73242;BME280;65659;49.234;-2.094;2023-02-26T01:07:39;100728.26;;;23.77;22.92
73242;BME280;65659;49.234;-2.094;2023-02-26T01:10:00;100728.31;;;23.77;22.89
73242;BME280;65659;49.234;-2.094;2023-02-26T01:12:26;100725.68;;;23.71;22.95
73242;BME280;65659;49.234;-2.094;2023-02-26T01:14:52;100727.00;;;23.75;22.93
73242;BME280;65659;49.234;-2.094;2023-02-26T01:17:22;100730.08;;;24.09;22.89
73242;BME280;65659;49.234;-2.094;2023-02-26T01:19:46;100728.87;;;23.83;22.90
73242;BME280;65659;49.234;-2.094;2023-02-26T01:22:14;100730.25;;;23.81;22.89
73242;BME280;65659;49.234;-2.094;2023-02-26T01:24:35;100727.74;;;24.05;22.88
73242;BME280;65659;49.234;-2.094;2023-02-26T01:27:00;100729.04;;;24.02;22.92
73242;BME280;65659;49.234;-2.094;2023-02-26T01:29:26;100727.17;;;23.55;22.90
73242;BME280;65659;49.234;-2.094;2023-02-26T01:31:56;100733.40;;;23.79;22.92
73242;BME280;65659;49.234;-2.094;2023-02-26T01:34:21;100740.10;;;23.82;22.89
73242;BME280;65659;49.234;-2.094;2023-02-26T01:36:50;100736.57;;;24.05;22.89
73242;BME280;65659;49.234;-2.094;2023-02-26T01:39:15;100740.08;;;23.77;22.90
73242;BME280;65659;49.234;-2.094;2023-02-26T01:41:38;100746.35;;;23.80;22.91
73242;BME280;65659;49.234;-2.094;2023-02-26T01:44:08;100750.33;;;23.58;22.88
73242;BME280;65659;49.234;-2.094;2023-02-26T01:46:31;100744.53;;;23.86;22.87
73242;BME280;65659;49.234;-2.094;2023-02-26T01:48:53;100740.23;;;23.66;22.83
73242;BME280;65659;49.234;-2.094;2023-02-26T01:51:18;100739.50;;;23.65;22.84
73242;BME280;65659;49.234;-2.094;2023-02-26T01:53:43;100747.48;;;23.63;22.86
73242;BME280;65659;49.234;-2.094;2023-02-26T01:56:13;100751.48;;;23.86;22.86
73242;BME280;65659;49.234;-2.094;2023-02-26T01:58:36;100752.30;;;23.62;22.86
73242;BME280;65659;49.234;-2.094;2023-02-26T02:01:00;100756.61;;;24.10;22.86
73242;BME280;65659;49.234;-2.094;2023-02-26T02:03:27;100754.74;;;23.81;22.88
73242;BME280;65659;49.234;-2.094;2023-02-26T02:05:55;100755.51;;;23.54;22.92
73242;BME280;65659;49.234;-2.094;2023-02-26T02:08:18;100755.00;;;23.53;22.93
73242;BME280;65659;49.234;-2.094;2023-02-26T02:10:46;100757.59;;;24.04;22.91
73242;BME280;65659;49.234;-2.094;2023-02-26T02:13:19;100758.01;;;23.56;22.90
73242;BME280;65659;49.234;-2.094;2023-02-26T02:15:41;100757.81;;;23.54;22.93
73242;BME280;65659;49.234;-2.094;2023-02-26T02:18:04;100759.20;;;23.78;22.94
73242;BME280;65659;49.234;-2.094;2023-02-26T02:22:59;100756.28;;;23.75;22.96
73242;BME280;65659;49.234;-2.094;2023-02-26T02:25:32;100744.71;;;23.55;22.94
73242;BME280;65659;49.234;-2.094;2023-02-26T02:27:48;100753.44;;;23.81;22.93
73242;BME280;65659;49.234;-2.094;2023-02-26T02:30:21;100752.82;;;23.82;22.91
73242;BME280;65659;49.234;-2.094;2023-02-26T02:32:38;100757.25;;;23.82;22.93
73242;BME280;65659;49.234;-2.094;2023-02-26T02:35:06;100758.30;;;24.09;22.89
73242;BME280;65659;49.234;-2.094;2023-02-26T02:37:30;100756.17;;;24.13;22.88
73242;BME280;65659;49.234;-2.094;2023-02-26T02:39:57;100766.29;;;23.92;22.87
73242;BME280;65659;49.234;-2.094;2023-02-26T02:42:22;100760.59;;;23.90;22.86
73242;BME280;65659;49.234;-2.094;2023-02-26T02:44:49;100758.64;;;23.66;22.86
73242;BME280;65659;49.234;-2.094;2023-02-26T02:47:10;100763.95;;;23.92;22.86
73242;BME280;65659;49.234;-2.094;2023-02-26T02:49:36;100764.94;;;23.93;22.85
73242;BME280;65659;49.234;-2.094;2023-02-26T02:52:06;100765.30;;;23.87;22.85
73242;BME280;65659;49.234;-2.094;2023-02-26T02:54:31;100765.80;;;23.61;22.86
73242;BME280;65659;49.234;-2.094;2023-02-26T02:56:53;100770.92;;;23.84;22.87
73242;BME280;65659;49.234;-2.094;2023-02-26T02:59:20;100773.55;;;23.86;22.86
73242;BME280;65659;49.234;-2.094;2023-02-26T03:01:44;100772.86;;;23.63;22.88
73242;BME280;65659;49.234;-2.094;2023-02-26T03:04:10;100778.22;;;23.84;22.90
73242;BME280;65659;49.234;-2.094;2023-02-26T03:06:34;100785.57;;;23.81;22.92
73242;BME280;65659;49.234;-2.094;2023-02-26T03:09:00;100786.03;;;23.83;22.92
73242;BME280;65659;49.234;-2.094;2023-02-26T03:11:26;100793.24;;;24.08;22.91
73242;BME280;65659;49.234;-2.094;2023-02-26T03:13:52;100793.95;;;23.61;22.90
73242;BME280;65659;49.234;-2.094;2023-02-26T03:16:29;100799.37;;;24.12;22.91
73242;BME280;65659;49.234;-2.094;2023-02-26T03:18:52;100793.01;;;23.71;22.84
73242;BME280;65659;49.234;-2.094;2023-02-26T03:21:12;100792.54;;;23.72;22.83
73242;BME280;65659;49.234;-2.094;2023-02-26T03:23:38;100789.94;;;23.72;22.85
73242;BME280;65659;49.234;-2.094;2023-02-26T03:26:05;100783.85;;;23.97;22.86
73242;BME280;65659;49.234;-2.094;2023-02-26T03:28:31;100785.83;;;23.95;22.85
73242;BME280;65659;49.234;-2.094;2023-02-26T03:30:56;100788.36;;;23.76;22.80
73242;BME280;65659;49.234;-2.094;2023-02-26T03:33:22;100791.02;;;23.77;22.81
73242;BME280;65659;49.234;-2.094;2023-02-26T03:35:48;100786.69;;;24.24;22.77
73242;BME280;65659;49.234;-2.094;2023-02-26T03:38:17;100789.43;;;23.77;22.79
73242;BME280;65659;49.234;-2.094;2023-02-26T03:40:38;100790.81;;;24.04;22.74
73242;BME280;65659;49.234;-2.094;2023-02-26T03:43:03;100789.85;;;24.27;22.73
73242;BME280;65659;49.234;-2.094;2023-02-26T03:45:29;100790.54;;;23.82;22.70
73242;BME280;65659;49.234;-2.094;2023-02-26T03:47:52;100791.40;;;24.07;22.69
73242;BME280;65659;49.234;-2.094;2023-02-26T03:50:21;100790.86;;;24.09;22.68
73242;BME280;65659;49.234;-2.094;2023-02-26T03:52:45;100790.83;;;24.07;22.68
73242;BME280;65659;49.234;-2.094;2023-02-26T03:55:12;100792.94;;;24.10;22.67
73242;BME280;65659;49.234;-2.094;2023-02-26T03:57:34;100793.39;;;23.83;22.68
73242;BME280;65659;49.234;-2.094;2023-02-26T04:00:00;100796.10;;;23.85;22.65
73242;BME280;65659;49.234;-2.094;2023-02-26T04:02:30;100808.17;;;23.85;22.66
73242;BME280;65659;49.234;-2.094;2023-02-26T04:04:55;100812.28;;;23.85;22.64
73242;BME280;65659;49.234;-2.094;2023-02-26T04:07:18;100814.20;;;24.34;22.63
73242;BME280;65659;49.234;-2.094;2023-02-26T04:09:46;100813.86;;;23.87;22.59
73242;BME280;65659;49.234;-2.094;2023-02-26T04:12:09;100816.37;;;23.86;22.62
73242;BME280;65659;49.234;-2.094;2023-02-26T04:14:35;100818.18;;;23.85;22.65
73242;BME280;65659;49.234;-2.094;2023-02-26T04:17:00;100822.93;;;23.87;22.62
73242;BME280;65659;49.234;-2.094;2023-02-26T04:19:26;100825.97;;;24.12;22.60
73242;BME280;65659;49.234;-2.094;2023-02-26T04:21:52;100828.61;;;24.14;22.54
73242;BME280;65659;49.234;-2.094;2023-02-26T04:24:17;100826.97;;;24.09;22.60
73242;BME280;65659;49.234;-2.094;2023-02-26T04:26:43;100824.02;;;23.91;22.55
73242;BME280;65659;49.234;-2.094;2023-02-26T04:29:09;100822.21;;;23.91;22.54
73242;BME280;65659;49.234;-2.094;2023-02-26T04:31:34;100824.75;;;23.91;22.54
73242;BME280;65659;49.234;-2.094;2023-02-26T04:34:00;100828.32;;;23.91;22.52
73242;BME280;65659;49.234;-2.094;2023-02-26T04:36:26;100833.43;;;23.91;22.52
73242;BME280;65659;49.234;-2.094;2023-02-26T04:38:52;100834.36;;;23.91;22.56
73242;BME280;65659;49.234;-2.094;2023-02-26T04:41:17;100832.95;;;23.91;22.56
73242;BME280;65659;49.234;-2.094;2023-02-26T04:43:43;100830.37;;;23.96;22.49
73242;BME280;65659;49.234;-2.094;2023-02-26T04:46:09;100837.22;;;23.92;22.51
73242;BME280;65659;49.234;-2.094;2023-02-26T04:48:35;100839.84;;;23.91;22.48
73242;BME280;65659;49.234;-2.094;2023-02-26T04:51:00;100841.08;;;24.12;22.47
73242;BME280;65659;49.234;-2.094;2023-02-26T04:53:26;100844.85;;;23.81;22.50
73242;BME280;65659;49.234;-2.094;2023-02-26T04:55:52;100840.31;;;23.80;22.52
73242;BME280;65659;49.234;-2.094;2023-02-26T04:58:17;100842.20;;;23.74;22.59
73242;BME280;65659;49.234;-2.094;2023-02-26T05:00:47;100851.48;;;24.29;22.54
73242;BME280;65659;49.234;-2.094;2023-02-26T05:03:09;100855.77;;;23.86;22.49
73242;BME280;65659;49.234;-2.094;2023-02-26T05:05:35;100854.89;;;23.88;22.45
73242;BME280;65659;49.234;-2.094;2023-02-26T05:08:00;100857.24;;;23.88;22.47
73242;BME280;65659;49.234;-2.094;2023-02-26T05:10:27;100854.76;;;23.86;22.46
73242;BME280;65659;49.234;-2.094;2023-02-26T05:12:52;100856.31;;;23.81;22.47
73242;BME280;65659;49.234;-2.094;2023-02-26T05:15:18;100853.91;;;24.00;22.48
73242;BME280;65659;49.234;-2.094;2023-02-26T05:17:43;100855.94;;;23.71;22.53
73242;BME280;65659;49.234;-2.094;2023-02-26T05:20:10;100862.05;;;23.96;22.55
73242;BME280;65659;49.234;-2.094;2023-02-26T05:22:35;100868.43;;;24.20;22.53
73242;BME280;65659;49.234;-2.094;2023-02-26T05:25:00;100870.83;;;23.95;22.59
73242;BME280;65659;49.234;-2.094;2023-02-26T05:27:26;100870.52;;;23.96;22.59
73242;BME280;65659;49.234;-2.094;2023-02-26T05:29:52;100876.96;;;23.69;22.63
73242;BME280;65659;49.234;-2.094;2023-02-26T05:32:18;100877.08;;;23.87;22.63
73242;BME280;65659;49.234;-2.094;2023-02-26T05:34:43;100870.04;;;23.83;22.67
73242;BME280;65659;49.234;-2.094;2023-02-26T05:37:09;100871.54;;;24.05;22.67
73242;BME280;65659;49.234;-2.094;2023-02-26T05:39:35;100876.53;;;23.78;22.70
73242;BME280;65659;49.234;-2.094;2023-02-26T05:42:00;100881.57;;;23.52;22.72
73242;BME280;65659;49.234;-2.094;2023-02-26T05:44:26;100884.06;;;23.78;22.74
73242;BME280;65659;49.234;-2.094;2023-02-26T05:46:52;100883.29;;;23.79;22.74
73242;BME280;65659;49.234;-2.094;2023-02-26T05:49:18;100880.45;;;23.79;22.71
73242;BME280;65659;49.234;-2.094;2023-02-26T05:51:43;100881.36;;;23.87;22.69
73242;BME280;65659;49.234;-2.094;2023-02-26T05:54:10;100885.41;;;23.88;22.70
73242;BME280;65659;49.234;-2.094;2023-02-26T05:56:35;100886.05;;;23.89;22.68
73242;BME280;65659;49.234;-2.094;2023-02-26T05:59:01;100888.11;;;23.67;22.66
73242;BME280;65659;49.234;-2.094;2023-02-26T06:01:26;100896.47;;;23.90;22.67
73242;BME280;65659;49.234;-2.094;2023-02-26T06:03:52;100903.89;;;23.93;22.64
73242;BME280;65659;49.234;-2.094;2023-02-26T06:06:18;100902.32;;;24.10;22.64
73242;BME280;65659;49.234;-2.094;2023-02-26T06:08:44;100903.44;;;24.07;22.66
73242;BME280;65659;49.234;-2.094;2023-02-26T06:11:09;100907.16;;;24.05;22.70
73242;BME280;65659;49.234;-2.094;2023-02-26T06:13:35;100916.66;;;23.58;22.74
73242;BME280;65659;49.234;-2.094;2023-02-26T06:16:01;100920.93;;;23.60;22.70
73242;BME280;65659;49.234;-2.094;2023-02-26T06:18:26;100932.52;;;23.88;22.73
73242;BME280;65659;49.234;-2.094;2023-02-26T06:20:52;100928.58;;;23.70;22.67
73242;BME280;65659;49.234;-2.094;2023-02-26T06:23:18;100933.69;;;23.94;22.67
73242;BME280;65659;49.234;-2.094;2023-02-26T06:25:43;100937.37;;;23.98;22.63
73242;BME280;65659;49.234;-2.094;2023-02-26T06:28:10;100940.08;;;23.79;22.61
73242;BME280;65659;49.234;-2.094;2023-02-26T06:30:35;100937.92;;;23.80;22.59
73242;BME280;65659;49.234;-2.094;2023-02-26T06:33:01;100936.79;;;23.78;22.57
73242;BME280;65659;49.234;-2.094;2023-02-26T06:35:26;100942.64;;;23.76;22.61
73242;BME280;65659;49.234;-2.094;2023-02-26T06:37:52;100940.21;;;23.75;22.60
73242;BME280;65659;49.234;-2.094;2023-02-26T06:40:18;100936.15;;;23.77;22.57
73242;BME280;65659;49.234;-2.094;2023-02-26T06:42:44;100939.31;;;23.73;22.60
73242;BME280;65659;49.234;-2.094;2023-02-26T06:45:10;100941.18;;;23.70;22.60
73242;BME280;65659;49.234;-2.094;2023-02-26T06:47:35;100943.14;;;23.99;22.58
73242;BME280;65659;49.234;-2.094;2023-02-26T06:50:01;100945.00;;;23.73;22.59
73242;BME280;65659;49.234;-2.094;2023-02-26T06:52:26;100959.39;;;23.94;22.61
73242;BME280;65659;49.234;-2.094;2023-02-26T06:54:52;100955.82;;;23.90;22.64
73242;BME280;65659;49.234;-2.094;2023-02-26T06:57:18;100966.10;;;24.13;22.65
73242;BME280;65659;49.234;-2.094;2023-02-26T06:59:44;100965.34;;;23.89;22.66
73242;BME280;65659;49.234;-2.094;2023-02-26T07:02:15;100969.74;;;23.66;22.65
73242;BME280;65659;49.234;-2.094;2023-02-26T07:04:35;100972.26;;;23.70;22.65
73242;BME280;65659;49.234;-2.094;2023-02-26T07:07:01;100974.30;;;23.94;22.62
73242;BME280;65659;49.234;-2.094;2023-02-26T07:09:27;100977.01;;;23.70;22.60
73242;BME280;65659;49.234;-2.094;2023-02-26T07:11:52;100980.41;;;23.89;22.66
73242;BME280;65659;49.234;-2.094;2023-02-26T07:14:18;100986.09;;;23.65;22.68
73242;BME280;65659;49.234;-2.094;2023-02-26T07:16:44;100987.61;;;23.64;22.68
73242;BME280;65659;49.234;-2.094;2023-02-26T07:19:10;100992.85;;;23.87;22.68
73242;BME280;65659;49.234;-2.094;2023-02-26T07:21:35;100985.76;;;23.63;22.71
73242;BME280;65659;49.234;-2.094;2023-02-26T07:24:01;100989.85;;;23.71;22.65
73242;BME280;65659;49.234;-2.094;2023-02-26T07:26:27;100994.57;;;23.96;22.67
73242;BME280;65659;49.234;-2.094;2023-02-26T07:28:52;101002.31;;;23.77;22.61
73242;BME280;65659;49.234;-2.094;2023-02-26T07:31:18;101008.87;;;24.00;22.61
73242;BME280;65659;49.234;-2.094;2023-02-26T07:33:44;101011.75;;;23.94;22.64
73242;BME280;65659;49.234;-2.094;2023-02-26T07:36:10;101019.43;;;23.89;22.65
73242;BME280;65659;49.234;-2.094;2023-02-26T07:38:35;101026.56;;;23.62;22.69
73242;BME280;65659;49.234;-2.094;2023-02-26T07:41:01;101033.40;;;23.59;22.73
73242;BME280;65659;49.234;-2.094;2023-02-26T07:43:27;101032.61;;;23.57;22.75
73242;BME280;65659;49.234;-2.094;2023-02-26T07:45:53;101041.41;;;24.07;22.76
73242;BME280;65659;49.234;-2.094;2023-02-26T07:48:19;101038.72;;;23.82;22.74
73242;BME280;65659;49.234;-2.094;2023-02-26T07:50:44;101045.23;;;23.78;22.76
73242;BME280;65659;49.234;-2.094;2023-02-26T07:53:10;101047.32;;;23.55;22.74
73242;BME280;65659;49.234;-2.094;2023-02-26T07:55:35;101041.43;;;23.56;22.71
73242;BME280;65659;49.234;-2.094;2023-02-26T07:58:01;101042.61;;;23.59;22.69
73242;BME280;65659;49.234;-2.094;2023-02-26T08:00:27;101048.71;;;23.61;22.67
73242;BME280;65659;49.234;-2.094;2023-02-26T08:02:53;101047.21;;;23.63;22.67
73242;BME280;65659;49.234;-2.094;2023-02-26T08:05:18;101054.31;;;23.86;22.66
73242;BME280;65659;49.234;-2.094;2023-02-26T08:07:44;101056.40;;;23.60;22.68
73242;BME280;65659;49.234;-2.094;2023-02-26T08:10:11;101062.75;;;23.60;22.70
73242;BME280;65659;49.234;-2.094;2023-02-26T08:12:36;101069.29;;;23.61;22.69
73242;BME280;65659;49.234;-2.094;2023-02-26T08:15:02;101071.72;;;23.88;22.67
73242;BME280;65659;49.234;-2.094;2023-02-26T08:17:27;101078.39;;;23.66;22.67
73242;BME280;65659;49.234;-2.094;2023-02-26T08:19:53;101092.29;;;23.68;22.67
73242;BME280;65659;49.234;-2.094;2023-02-26T08:22:19;101082.27;;;24.16;22.66
73242;BME280;65659;49.234;-2.094;2023-02-26T08:24:44;101090.59;;;23.66;22.67
73242;BME280;65659;49.234;-2.094;2023-02-26T08:27:10;101095.04;;;23.62;22.68
73242;BME280;65659;49.234;-2.094;2023-02-26T08:29:36;101099.04;;;23.89;22.65
73242;BME280;65659;49.234;-2.094;2023-02-26T08:32:02;101098.07;;;23.70;22.64
73242;BME280;65659;49.234;-2.094;2023-02-26T08:34:27;101107.09;;;23.71;22.68
73242;BME280;65659;49.234;-2.094;2023-02-26T08:36:53;101106.94;;;23.96;22.62
73242;BME280;65659;49.234;-2.094;2023-02-26T08:39:19;101105.15;;;23.71;22.62
73242;BME280;65659;49.234;-2.094;2023-02-26T08:41:44;101109.12;;;23.71;22.62
73242;BME280;65659;49.234;-2.094;2023-02-26T08:44:10;101111.83;;;23.72;22.62
73242;BME280;65659;49.234;-2.094;2023-02-26T08:46:36;101114.77;;;23.93;22.66
73242;BME280;65659;49.234;-2.094;2023-02-26T08:49:02;101117.37;;;23.71;22.65
73242;BME280;65659;49.234;-2.094;2023-02-26T08:51:27;101125.69;;;23.71;22.64
73242;BME280;65659;49.234;-2.094;2023-02-26T08:53:53;101124.19;;;23.99;22.60
73242;BME280;65659;49.234;-2.094;2023-02-26T08:56:19;101127.81;;;23.72;22.62
73242;BME280;65659;49.234;-2.094;2023-02-26T08:58:44;101131.23;;;23.74;22.64
73242;BME280;65659;49.234;-2.094;2023-02-26T09:01:10;101133.82;;;23.79;22.61
73242;BME280;65659;49.234;-2.094;2023-02-26T09:03:36;101134.05;;;23.80;22.58
73242;BME280;65659;49.234;-2.094;2023-02-26T09:06:02;101136.89;;;23.83;22.59
73242;BME280;65659;49.234;-2.094;2023-02-26T09:08:27;101139.37;;;23.85;22.53
73242;BME280;65659;49.234;-2.094;2023-02-26T09:10:53;101145.04;;;23.85;22.55
73242;BME280;65659;49.234;-2.094;2023-02-26T09:13:19;101148.85;;;23.86;22.55
73242;BME280;65659;49.234;-2.094;2023-02-26T09:15:45;101152.86;;;23.89;22.53
73242;BME280;65659;49.234;-2.094;2023-02-26T09:18:11;101150.06;;;23.91;22.51
73242;BME280;65659;49.234;-2.094;2023-02-26T09:20:36;101151.38;;;23.89;22.55
73242;BME280;65659;49.234;-2.094;2023-02-26T09:23:02;101158.38;;;23.91;22.54
73242;BME280;65659;49.234;-2.094;2023-02-26T09:25:27;101158.46;;;24.17;22.56
73242;BME280;65659;49.234;-2.094;2023-02-26T09:27:53;101156.56;;;24.14;22.55
73242;BME280;65659;49.234;-2.094;2023-02-26T09:30:19;101158.82;;;23.99;22.48
73242;BME280;65659;49.234;-2.094;2023-02-26T09:32:45;101162.18;;;23.96;22.48
73242;BME280;65659;49.234;-2.094;2023-02-26T09:35:10;101164.22;;;23.96;22.49
73242;BME280;65659;49.234;-2.094;2023-02-26T09:37:36;101166.16;;;23.95;22.51
73242;BME280;65659;49.234;-2.094;2023-02-26T09:40:02;101166.18;;;23.90;22.52
73242;BME280;65659;49.234;-2.094;2023-02-26T09:42:42;101163.94;;;23.89;22.54
73242;BME280;65659;49.234;-2.094;2023-02-26T09:44:53;101163.68;;;23.90;22.54
73242;BME280;65659;49.234;-2.094;2023-02-26T09:47:22;101162.10;;;23.94;22.52
73242;BME280;65659;49.234;-2.094;2023-02-26T09:49:51;101165.69;;;24.19;22.51
73242;BME280;65659;49.234;-2.094;2023-02-26T09:52:18;101171.85;;;23.99;22.52
73242;BME280;65659;49.234;-2.094;2023-02-26T09:54:42;101172.43;;;24.01;22.52
73242;BME280;65659;49.234;-2.094;2023-02-26T09:57:04;101176.04;;;24.01;22.49
73242;BME280;65659;49.234;-2.094;2023-02-26T09:59:31;101179.42;;;24.27;22.49
73242;BME280;65659;49.234;-2.094;2023-02-26T10:01:57;101183.85;;;23.81;22.45
73242;BME280;65659;49.234;-2.094;2023-02-26T10:04:26;101186.15;;;24.06;22.45
73242;BME280;65659;49.234;-2.094;2023-02-26T10:06:53;101185.53;;;24.10;22.40
73242;BME280;65659;49.234;-2.094;2023-02-26T10:09:26;101195.52;;;24.11;22.38
73242;BME280;65659;49.234;-2.094;2023-02-26T10:11:44;101217.33;;;24.09;22.41
73242;BME280;65659;49.234;-2.094;2023-02-26T10:14:05;101216.73;;;23.84;22.38
73242;BME280;65659;49.234;-2.094;2023-02-26T10:16:32;101217.66;;;24.07;22.38
73242;BME280;65659;49.234;-2.094;2023-02-26T10:18:56;101220.18;;;24.04;22.40
73242;BME280;65659;49.234;-2.094;2023-02-26T10:21:22;101227.66;;;24.01;22.41
73242;BME280;65659;49.234;-2.094;2023-02-26T10:23:50;101230.82;;;24.01;22.40
73242;BME280;65659;49.234;-2.094;2023-02-26T10:26:17;101226.24;;;23.98;22.44
73242;BME280;65659;49.234;-2.094;2023-02-26T10:28:47;101228.22;;;23.98;22.49
73242;BME280;65659;49.234;-2.094;2023-02-26T10:31:06;101233.96;;;23.78;22.42
73242;BME280;65659;49.234;-2.094;2023-02-26T10:33:34;101235.92;;;24.05;22.40
73242;BME280;65659;49.234;-2.094;2023-02-26T10:35:57;101233.90;;;24.49;22.43
73242;BME280;65659;49.234;-2.094;2023-02-26T10:38:23;101227.59;;;23.98;22.47
73242;BME280;65659;49.234;-2.094;2023-02-26T10:40:49;101232.12;;;24.04;22.43
73242;BME280;65659;49.234;-2.094;2023-02-26T10:43:16;101236.79;;;24.07;22.40
73242;BME280;65659;49.234;-2.094;2023-02-26T10:45:46;101246.02;;;24.06;22.40
73242;BME280;65659;49.234;-2.094;2023-02-26T10:48:12;101244.30;;;24.06;22.40
73242;BME280;65659;49.234;-2.094;2023-02-26T10:50:28;101246.03;;;24.07;22.35
73242;BME280;65659;49.234;-2.094;2023-02-26T10:52:54;101251.92;;;24.07;22.38
73242;BME280;65659;49.234;-2.094;2023-02-26T10:55:31;101257.67;;;24.06;22.42
73242;BME280;65659;49.234;-2.094;2023-02-26T10:57:49;101256.09;;;24.13;22.38
73242;BME280;65659;49.234;-2.094;2023-02-26T11:00:17;101255.97;;;24.18;22.31
73242;BME280;65659;49.234;-2.094;2023-02-26T11:02:39;101268.26;;;24.20;22.29
73242;BME280;65659;49.234;-2.094;2023-02-26T11:05:04;101271.60;;;24.16;22.31
73242;BME280;65659;49.234;-2.094;2023-02-26T11:07:30;101276.69;;;24.10;22.35
73242;BME280;65659;49.234;-2.094;2023-02-26T11:09:54;101279.28;;;24.13;22.32
73242;BME280;65659;49.234;-2.094;2023-02-26T11:12:20;101280.98;;;24.13;22.33
73242;BME280;65659;49.234;-2.094;2023-02-26T11:14:47;101288.34;;;24.38;22.32
73242;BME280;65659;49.234;-2.094;2023-02-26T11:17:15;101288.91;;;24.11;22.33
73242;BME280;65659;49.234;-2.094;2023-02-26T11:19:39;101292.16;;;24.13;22.34
73242;BME280;65659;49.234;-2.094;2023-02-26T11:22:04;101292.76;;;24.14;22.35
73242;BME280;65659;49.234;-2.094;2023-02-26T11:24:30;101291.11;;;24.14;22.36
73242;BME280;65659;49.234;-2.094;2023-02-26T11:26:57;101292.02;;;24.16;22.32
73242;BME280;65659;49.234;-2.094;2023-02-26T11:29:21;101289.69;;;24.21;22.28
73242;BME280;65659;49.234;-2.094;2023-02-26T11:31:47;101286.83;;;24.16;22.32
73242;BME280;65659;49.234;-2.094;2023-02-26T11:34:11;101286.55;;;24.16;22.33
73242;BME280;65659;49.234;-2.094;2023-02-26T11:36:39;101283.08;;;24.19;22.31
73242;BME280;65659;49.234;-2.094;2023-02-26T11:39:06;101280.28;;;24.20;22.29
73242;BME280;65659;49.234;-2.094;2023-02-26T11:41:29;101290.42;;;24.20;22.31
73242;BME280;65659;49.234;-2.094;2023-02-26T11:43:59;101285.42;;;23.93;22.32
73242;BME280;65659;49.234;-2.094;2023-02-26T11:46:23;101283.26;;;24.16;22.31
73242;BME280;65659;49.234;-2.094;2023-02-26T11:48:47;101284.24;;;24.15;22.29
73242;BME280;65659;49.234;-2.094;2023-02-26T11:51:13;101289.54;;;24.14;22.34
73242;BME280;65659;49.234;-2.094;2023-02-26T11:53:42;101291.51;;;24.11;22.35
73242;BME280;65659;49.234;-2.094;2023-02-26T11:56:09;101291.24;;;23.90;22.31
73242;BME280;65659;49.234;-2.094;2023-02-26T11:58:36;101290.96;;;24.11;22.34
73242;BME280;65659;49.234;-2.094;2023-02-26T12:00:57;101290.52;;;24.10;22.37
73242;BME280;65659;49.234;-2.094;2023-02-26T12:03:22;101287.17;;;24.12;22.33
73242;BME280;65659;49.234;-2.094;2023-02-26T12:05:45;101292.83;;;24.16;22.24
73242;BME280;65659;49.234;-2.094;2023-02-26T12:08:17;101289.93;;;23.87;22.32
73242;BME280;65659;49.234;-2.094;2023-02-26T12:10:42;101291.94;;;24.06;22.35
73242;BME280;65659;49.234;-2.094;2023-02-26T12:13:08;101295.12;;;24.01;22.34
73242;BME280;65659;49.234;-2.094;2023-02-26T12:15:33;101300.92;;;24.02;22.31
73242;BME280;65659;49.234;-2.094;2023-02-26T12:20:25;101307.45;;;24.02;22.27
73242;BME280;65659;49.234;-2.094;2023-02-26T12:22:49;101306.95;;;24.08;22.26
73242;BME280;65659;49.234;-2.094;2023-02-26T12:25:21;101310.31;;;24.08;22.23
73242;BME280;65659;49.234;-2.094;2023-02-26T12:27:48;101305.47;;;24.04;22.24
73242;BME280;65659;49.234;-2.094;2023-02-26T12:30:14;101311.28;;;24.03;22.23
73242;BME280;65659;49.234;-2.094;2023-02-26T12:32:39;101313.41;;;24.08;22.18
73242;BME280;65659;49.234;-2.094;2023-02-26T12:37:31;101322.06;;;24.03;22.26
73242;BME280;65659;49.234;-2.094;2023-02-26T12:39:55;101316.51;;;24.04;22.26